Time;durP1;ratioP1;P1;durP2;ratioP2;P2;SDS_P1;SDS_P2;PMS_P1;PMS_P2;Temp;Humidity;BMP_temperature;BMP_pressure;BME280_temperature;BME280_humidity;BME280_pressure;Samples;Min_cycle;Max_cycle;Signal;HPM_P1;HPM_P2
2022/05/17 00:02:11;;;;;;;10.35;4.20;;;13.10;99.90;;;;;;6264226;22;20077;-89
2022/05/17 00:04:59;;;;;;;8.55;4.30;;;13.00;99.90;;;;;;6266400;22;20137;-89
2022/05/17 00:07:49;;;;;;;8.88;4.00;;;13.00;99.90;;;;;;6264249;22;20019;-90
2022/05/17 00:10:40;;;;;;;11.15;5.15;;;13.00;99.90;;;;;;6265887;22;20038;-89
2022/05/17 00:13:28;;;;;;;5.75;3.72;;;13.00;99.90;;;;;;6287961;22;20023;-90
2022/05/17 00:16:19;;;;;;;7.20;4.45;;;13.00;99.90;;;;;;6285391;22;20403;-88
2022/05/17 00:19:11;;;;;;;12.35;4.43;;;12.90;99.90;;;;;;6261759;22;20020;-86
2022/05/17 00:22:01;;;;;;;11.73;4.45;;;13.00;99.90;;;;;;6284401;22;20151;-88
2022/05/17 00:24:50;;;;;;;8.02;4.22;;;13.00;99.90;;;;;;6261053;22;20023;-88
2022/05/17 00:27:37;;;;;;;7.30;3.90;;;13.00;99.90;;;;;;6262997;22;20102;-87
2022/05/17 00:30:25;;;;;;;9.02;3.88;;;13.10;99.90;;;;;;6264036;22;20077;-87
2022/05/17 00:33:12;;;;;;;8.48;3.90;;;13.00;99.90;;;;;;6262937;22;20024;-89
2022/05/17 00:36:00;;;;;;;6.63;3.90;;;13.00;99.90;;;;;;6284399;22;20032;-88
2022/05/17 00:38:47;;;;;;;8.32;4.55;;;12.90;99.90;;;;;;6265592;22;20043;-88
2022/05/17 00:41:37;;;;;;;11.98;4.00;;;12.90;99.90;;;;;;6285127;22;20024;-87
2022/05/17 00:47:41;;;;;;;8.50;4.28;;;12.90;99.90;;;;;;6288225;22;20102;-89
2022/05/17 00:50:55;;;;;;;7.00;3.90;;;12.90;99.90;;;;;;6273215;22;20034;-87
2022/05/17 00:53:43;;;;;;;8.05;4.05;;;12.90;99.90;;;;;;6274123;22;20071;-86
2022/05/17 00:56:31;;;;;;;11.07;4.18;;;12.90;99.90;;;;;;6294253;22;20019;-87
2022/05/17 00:59:18;;;;;;;11.77;4.78;;;12.80;99.90;;;;;;6273860;22;20050;-86
2022/05/17 01:02:09;;;;;;;6.57;3.53;;;12.80;99.90;;;;;;6273484;22;20023;-87
2022/05/17 01:04:57;;;;;;;8.10;4.47;;;12.80;99.90;;;;;;6288134;22;20038;-86
2022/05/17 01:07:57;;;;;;;9.38;4.55;;;12.80;99.90;;;;;;6286333;22;20039;-86
2022/05/17 01:10:46;;;;;;;7.65;4.35;;;12.70;99.90;;;;;;6292732;22;20023;-87
2022/05/17 01:16:45;;;;;;;7.50;4.40;;;12.60;99.90;;;;;;6288924;22;20043;-86
2022/05/17 01:19:43;;;;;;;8.45;4.88;;;12.50;99.90;;;;;;6258278;22;20062;-89
2022/05/17 01:22:35;;;;;;;11.82;4.80;;;12.40;99.90;;;;;;6281507;22;20020;-86
2022/05/17 01:25:22;;;;;;;9.15;4.57;;;12.30;99.90;;;;;;6282889;22;20054;-88
2022/05/17 01:28:32;;;;;;;10.23;4.78;;;12.10;99.90;;;;;;6261518;22;20205;-87
2022/05/17 01:31:20;;;;;;;9.57;4.70;;;12.10;99.90;;;;;;6256320;22;20028;-88
2022/05/17 01:34:15;;;;;;;11.90;5.00;;;12.10;99.90;;;;;;6280300;22;20027;-85
2022/05/17 01:37:04;;;;;;;8.38;4.65;;;11.90;99.90;;;;;;6257538;22;20019;-88
2022/05/17 01:39:51;;;;;;;8.85;5.45;;;11.90;99.90;;;;;;6256076;22;20058;-88
2022/05/17 01:42:41;;;;;;;10.63;5.90;;;11.80;99.90;;;;;;6277881;22;20024;-89
2022/05/17 01:45:29;;;;;;;10.25;4.97;;;11.70;99.90;;;;;;6276710;22;20094;-89
2022/05/17 01:48:21;;;;;;;9.23;5.55;;;11.70;99.90;;;;;;6277139;22;20039;-87
2022/05/17 01:51:09;;;;;;;7.73;5.37;;;11.70;99.90;;;;;;6277747;22;20027;-88
2022/05/17 01:53:57;;;;;;;13.82;5.70;;;11.70;99.90;;;;;;6277165;22;20399;-89
2022/05/17 01:56:44;;;;;;;9.23;5.50;;;11.80;99.90;;;;;;6255020;22;20024;-88
2022/05/17 01:59:33;;;;;;;9.02;5.72;;;11.80;99.90;;;;;;6277023;22;20418;-87
2022/05/17 02:02:22;;;;;;;10.32;6.20;;;11.80;99.90;;;;;;6251709;22;20031;-87
2022/05/17 02:05:10;;;;;;;10.00;6.22;;;11.90;99.90;;;;;;6248011;22;20085;-85
2022/05/17 02:07:57;;;;;;;15.45;6.78;;;11.90;99.90;;;;;;6231053;22;20038;-88
2022/05/17 02:10:44;;;;;;;9.18;5.97;;;12.00;99.90;;;;;;6276976;22;20427;-88
2022/05/17 02:13:31;;;;;;;15.93;6.25;;;12.00;99.90;;;;;;6277421;22;20027;-89
2022/05/17 02:16:18;;;;;;;10.75;5.70;;;12.00;99.90;;;;;;6277125;22;20031;-86
2022/05/17 02:19:10;;;;;;;9.43;5.28;;;12.00;99.90;;;;;;6256593;22;20087;-86
2022/05/17 02:21:57;;;;;;;10.30;6.22;;;12.00;99.90;;;;;;6274471;22;20113;-89
2022/05/17 02:24:47;;;;;;;9.75;5.80;;;12.00;99.90;;;;;;6253519;22;20039;-87
2022/05/17 02:27:34;;;;;;;12.25;5.72;;;12.10;99.90;;;;;;6255621;22;20036;-89
2022/05/17 02:30:22;;;;;;;12.38;6.70;;;12.10;99.90;;;;;;6257542;22;20085;-87
2022/05/17 02:33:10;;;;;;;11.77;6.32;;;12.10;99.90;;;;;;6275576;22;20030;-90
2022/05/17 02:35:57;;;;;;;11.02;6.40;;;12.20;99.90;;;;;;6255754;22;20034;-88
2022/05/17 02:38:45;;;;;;;11.07;6.05;;;12.20;99.90;;;;;;6276196;22;20081;-87
2022/05/17 02:41:33;;;;;;;11.98;6.72;;;12.20;99.90;;;;;;6256872;22;20275;-87
2022/05/17 02:44:21;;;;;;;14.35;6.70;;;12.10;99.90;;;;;;6258379;22;20370;-87
2022/05/17 02:47:13;;;;;;;11.25;6.53;;;12.10;99.90;;;;;;6237591;22;20039;-86
2022/05/17 02:50:00;;;;;;;11.55;6.40;;;12.00;99.90;;;;;;6278099;22;20089;-88
2022/05/17 02:52:48;;;;;;;12.35;6.22;;;11.90;99.90;;;;;;6275298;22;20034;-87
2022/05/17 02:55:35;;;;;;;10.85;6.97;;;11.90;99.90;;;;;;6254209;22;20114;-86
2022/05/17 02:58:22;;;;;;;15.68;6.88;;;11.80;99.90;;;;;;6252818;22;20019;-87
2022/05/17 03:01:10;;;;;;;13.60;6.10;;;11.70;99.90;;;;;;6277144;22;20116;-87
2022/05/17 03:03:57;;;;;;;11.27;6.40;;;11.70;99.90;;;;;;6278041;22;20028;-86
2022/05/17 03:06:50;;;;;;;12.07;7.07;;;11.60;99.90;;;;;;6254530;22;20028;-88
2022/05/17 03:09:39;;;;;;;;;;;11.50;99.90;;;;;;6278305;22;20088;-87
2022/05/17 03:12:26;;;;;;;16.20;8.82;;;11.40;99.90;;;;;;6277589;22;20033;-87
2022/05/17 03:15:21;;;;;;;22.05;10.80;;;11.30;99.90;;;;;;6252531;22;20427;-85
2022/05/17 03:18:09;;;;;;;18.42;9.20;;;11.20;99.90;;;;;;6253309;22;20141;-88
2022/05/17 03:20:57;;;;;;;13.48;7.53;;;11.00;99.90;;;;;;6254391;22;20027;-87
2022/05/17 03:23:44;;;;;;;12.75;8.45;;;10.90;99.90;;;;;;6254704;22;20267;-87
2022/05/17 03:26:31;;;;;;;11.93;7.72;;;10.80;99.90;;;;;;6275154;22;20046;-88
2022/05/17 03:29:18;;;;;;;17.10;9.10;;;10.70;99.90;;;;;;6255464;22;20062;-87
2022/05/17 03:32:11;;;;;;;15.70;9.05;;;10.70;99.90;;;;;;6254804;22;20032;-88
2022/05/17 03:35:00;;;;;;;;;;;10.70;99.90;;;;;;6279421;22;20031;-88
2022/05/17 03:37:48;;;;;;;15.27;9.05;;;10.70;99.90;;;;;;6277515;22;19937;-88
2022/05/17 03:40:36;;;;;;;27.75;14.60;;;10.80;99.90;;;;;;6258310;22;20027;-84
2022/05/17 03:43:27;;;;;;;27.05;14.93;;;10.80;99.90;;;;;;6259847;22;20024;-86
2022/05/17 03:46:16;;;;;;;22.13;11.70;;;10.90;99.90;;;;;;6257521;22;20355;-88
2022/05/17 03:49:04;;;;;;;18.08;10.18;;;10.90;99.90;;;;;;6276745;22;20075;-88
2022/05/17 03:51:57;;;;;;;18.38;10.77;;;11.00;99.90;;;;;;6277179;22;20027;-88
2022/05/17 03:54:44;;;;;;;16.33;10.32;;;11.00;99.90;;;;;;6257150;22;20062;-88
2022/05/17 03:57:32;;;;;;;15.60;8.88;;;10.90;99.90;;;;;;6276940;22;20086;-87
2022/05/17 04:00:20;;;;;;;19.38;10.57;;;10.90;99.90;;;;;;6276278;22;20047;-89
2022/05/17 04:03:09;;;;;;;21.17;9.32;;;10.80;99.90;;;;;;6279396;22;20027;-89
2022/05/17 04:05:57;;;;;;;30.17;11.27;;;10.90;99.90;;;;;;6283333;22;20444;-88
2022/05/17 04:08:45;;;;;;;17.80;10.63;;;10.90;99.90;;;;;;6280114;22;20027;-88
2022/05/17 04:11:33;;;;;;;18.00;11.23;;;10.90;99.90;;;;;;6255309;22;20068;-87
2022/05/17 04:14:23;;;;;;;20.83;11.23;;;11.00;99.90;;;;;;6255070;22;20034;-88
2022/05/17 04:17:10;;;;;;;25.00;11.20;;;11.10;99.90;;;;;;6254310;22;20507;-86
2022/05/17 04:20:01;;;;;;;17.23;10.60;;;11.20;99.90;;;;;;6280041;22;20023;-87
2022/05/17 04:22:50;;;;;;;17.08;9.60;;;11.20;99.90;;;;;;6275820;22;20023;-88
2022/05/17 04:29:46;;;;;;;17.40;9.40;;;11.30;99.90;;;;;;6276542;22;20012;-84
2022/05/17 04:44:48;;;;;;;9.90;7.93;;;11.60;99.90;;;;;;6207519;22;20019;-86
2022/05/17 04:47:45;;;;;;;13.93;8.35;;;11.70;99.90;;;;;;6258253;22;20034;-88
2022/05/17 04:50:40;;;;;;;14.65;8.63;;;11.70;99.90;;;;;;6281096;22;20024;-84
2022/05/17 04:53:28;;;;;;;10.93;8.05;;;11.80;99.90;;;;;;6274328;22;20474;-86
2022/05/17 04:56:16;;;;;;;11.27;7.68;;;11.90;99.90;;;;;;6270150;22;20024;-85
2022/05/17 04:59:34;;;;;;;10.73;7.63;;;12.00;99.90;;;;;;6248064;22;20043;-84
2022/05/17 05:02:37;;;;;;;10.98;7.75;;;12.00;99.90;;;;;;6280060;22;20023;-85
2022/05/17 05:05:40;;;;;;;12.25;7.55;;;12.10;99.90;;;;;;6153118;23;20397;-86
2022/05/17 05:17:02;;;;;;;10.45;7.30;;;12.30;99.90;;;;;;6184004;23;20026;-85
2022/05/17 05:35:32;;;;;;;;;;;;;;;;;;;;;
2022/05/17 05:38:26;;;;;;;8.60;6.05;;;13.50;99.90;;;;;;6096154;23;20207;-89
2022/05/17 05:41:19;;;;;;;9.98;6.43;;;13.70;99.90;;;;;;6094053;23;20118;-87
2022/05/17 05:47:59;;;;;;;16.70;7.68;;;14.00;99.90;;;;;;6093590;23;19921;-85
2022/05/17 05:50:47;;;;;;;10.70;7.00;;;14.00;99.90;;;;;;6095102;23;20034;-85
2022/05/17 05:53:37;;;;;;;9.52;6.00;;;14.10;99.90;;;;;;6094756;23;20065;-86
2022/05/17 05:56:24;;;;;;;10.50;6.13;;;14.10;99.90;;;;;;6095045;23;20037;-84
2022/05/17 05:59:12;;;;;;;8.02;5.80;;;14.20;99.90;;;;;;6184631;23;20114;-86
2022/05/17 06:01:59;;;;;;;12.55;6.13;;;14.30;99.90;;;;;;6182677;23;20033;-87
2022/05/17 06:04:46;;;;;;;10.93;6.55;;;14.50;99.90;;;;;;6184780;23;20041;-87
2022/05/17 06:07:35;;;;;;;12.73;6.20;;;14.70;99.90;;;;;;6188389;23;20479;-87
2022/05/17 06:10:30;;;;;;;9.50;6.05;;;14.90;99.90;;;;;;6199131;23;20060;-88
2022/05/17 06:13:37;;;;;;;8.73;6.45;;;15.10;99.90;;;;;;6198010;23;20356;-80
2022/05/17 06:16:26;;;;;;;9.02;6.93;;;15.30;99.90;;;;;;6282680;22;20020;-87
2022/05/17 06:19:14;;;;;;;14.10;7.35;;;15.50;99.90;;;;;;6276462;22;20264;-86
2022/05/17 06:22:01;;;;;;;16.80;6.82;;;15.80;99.90;;;;;;6253832;22;20024;-84
2022/05/17 06:24:49;;;;;;;10.07;6.28;;;16.10;99.90;;;;;;6275846;22;20024;-84
2022/05/17 06:27:44;;;;;;;9.20;6.25;;;16.50;99.90;;;;;;6258514;22;20120;-87
2022/05/17 06:43:13;;;;;;;13.48;5.53;;;17.60;99.90;;;;;;6150953;23;20390;-87
2022/05/17 06:46:02;;;;;;;10.60;5.97;;;18.10;99.90;;;;;;6129634;23;20029;-88
2022/05/17 06:48:56;;;;;;;8.75;5.45;;;18.30;99.90;;;;;;6199241;22;20112;-87
2022/05/17 06:51:44;;;;;;;11.55;5.43;;;18.50;99.90;;;;;;6270439;22;20024;-90
2022/05/17 06:54:44;;;;;;;10.32;4.93;;;18.80;99.90;;;;;;6259600;22;20391;-91
2022/05/17 06:57:31;;;;;;;10.48;5.20;;;19.10;99.90;;;;;;6252840;22;20028;-91
2022/05/17 07:30:39;;;;;;;8.73;5.25;;;22.60;99.90;;;;;;6011099;23;20019;-83
2022/05/17 08:06:57;;;;;;;7.68;3.97;;;24.50;94.20;;;;;;6097229;23;20092;-90
2022/05/17 08:22:38;;;;;;;5.72;3.67;;;25.00;89.00;;;;;;6277616;22;20008;-85
2022/05/17 08:29:58;;;;;;;10.27;3.45;;;25.20;85.40;;;;;;6277388;22;20083;-87
2022/05/17 08:41:09;;;;;;;6.32;3.60;;;26.00;79.40;;;;;;6277618;22;20028;-82
2022/05/17 08:44:04;;;;;;;4.45;3.42;;;25.90;71.10;;;;;;6276118;22;20099;-84
2022/05/17 08:47:13;;;;;;;5.00;3.65;;;24.80;74.10;;;;;;6279729;22;20023;-85
2022/05/17 08:50:28;;;;;;;7.88;3.35;;;24.60;85.00;;;;;;6278610;22;20099;-85
2022/05/17 08:56:03;;;;;;;6.30;3.20;;;25.70;79.80;;;;;;6256271;22;20024;-84
2022/05/17 08:59:09;;;;;;;6.47;3.03;;;26.00;74.20;;;;;;6252820;22;20566;-85
2022/05/17 09:02:12;;;;;;;4.07;2.65;;;26.60;77.30;;;;;;6275956;22;20298;-87
2022/05/17 09:05:24;;;;;;;9.50;3.30;;;27.40;66.90;;;;;;6276099;22;20098;-86
2022/05/17 09:08:46;;;;;;;7.20;3.38;;;28.00;61.80;;;;;;6252776;22;20083;-84
2022/05/17 09:11:46;;;;;;;5.95;3.20;;;26.70;63.50;;;;;;6278294;22;20165;-85
2022/05/17 09:14:41;;;;;;;6.22;3.33;;;25.20;69.20;;;;;;6252309;22;20034;-88
2022/05/17 09:17:37;;;;;;;5.68;2.85;;;25.00;68.10;;;;;;6274929;22;20039;-85
2022/05/17 09:20:38;;;;;;;6.15;2.53;;;25.80;69.40;;;;;;6277265;22;20023;-82
2022/05/17 09:23:36;;;;;;;5.75;2.90;;;25.60;65.60;;;;;;6255963;22;20120;-86
2022/05/17 09:27:04;;;;;;;7.82;3.42;;;24.80;66.80;;;;;;6252929;22;20304;-84
2022/05/17 09:38:54;;;;;;;5.03;2.35;;;25.00;71.30;;;;;;6281569;22;20008;-83
2022/05/17 10:00:07;;;;;;;3.90;2.15;;;27.70;62.70;;;;;;6278324;22;20022;-85
2022/05/17 10:03:34;;;;;;;5.93;2.80;;;29.40;57.20;;;;;;6279288;22;20059;-88
2022/05/17 10:07:35;;;;;;;6.78;3.13;;;28.30;53.50;;;;;;6256834;22;20023;-90
2022/05/17 10:11:02;;;;;;;4.43;2.45;;;28.60;60.00;;;;;;6151793;23;20366;-89
2022/05/17 10:18:11;;;;;;;7.47;2.67;;;31.00;51.40;;;;;;6129023;23;20484;-89
2022/05/17 10:21:40;;;;;;;6.03;2.38;;;31.40;51.70;;;;;;6151470;23;20051;-88
2022/05/17 10:25:22;;;;;;;5.45;2.15;;;31.50;51.40;;;;;;6075493;23;20026;-89
2022/05/17 10:29:00;;;;;;;3.90;2.03;;;30.80;49.70;;;;;;6123893;23;20499;-85
2022/05/17 10:33:07;;;;;;;;;;;;;;;;;;;;;
2022/05/17 10:37:57;;;;;;;2.70;2.08;;;28.70;52.50;;;;;;6138442;23;20104;-86
2022/05/17 10:41:06;;;;;;;;;;;;;;;;;;;;;
2022/05/17 10:48:22;;;;;;;;;;;;;;;;;;;;;
2022/05/17 11:12:57;;;;;;;4.50;2.60;;;31.80;48.20;;;;;;5974094;23;20103;-80
2022/05/17 11:15:54;;;;;;;6.45;2.65;;;30.90;47.30;;;;;;6088736;23;20078;-88
2022/05/17 11:19:00;;;;;;;5.10;2.53;;;30.90;48.80;;;;;;6173352;23;20052;-85
2022/05/17 11:21:54;;;;;;;3.85;2.15;;;30.90;47.60;;;;;;6190780;23;20036;-85
2022/05/17 11:25:14;;;;;;;3.75;1.85;;;30.50;47.40;;;;;;6191839;23;20025;-82
2022/05/17 11:28:02;;;;;;;4.43;2.20;;;30.20;47.10;;;;;;6185776;23;20044;-87
2022/05/17 11:31:13;;;;;;;3.80;2.15;;;29.90;49.10;;;;;;6182763;22;20027;-87
2022/05/17 11:34:23;;;;;;;5.55;2.67;;;29.40;49.90;;;;;;6254654;22;20019;-89
2022/05/17 11:37:34;;;;;;;4.90;2.33;;;28.10;51.40;;;;;;6276258;22;20058;-89
2022/05/17 11:40:46;;;;;;;4.53;2.53;;;28.90;53.70;;;;;;6275750;22;20055;-86
2022/05/17 11:44:03;;;;;;;6.15;2.75;;;28.90;51.00;;;;;;6276452;22;20024;-87
2022/05/17 11:47:00;;;;;;;5.43;2.50;;;28.10;50.20;;;;;;6157000;22;20029;-86
2022/05/17 11:49:48;;;;;;;4.90;2.50;;;28.00;53.50;;;;;;6252172;22;20110;-86
2022/05/17 11:52:37;;;;;;;4.28;2.28;;;27.50;51.40;;;;;;6281841;22;20046;-88
2022/05/17 11:55:28;;;;;;;4.55;2.00;;;27.60;52.60;;;;;;6264716;22;20024;-87
2022/05/17 11:58:31;;;;;;;3.75;1.95;;;29.00;51.50;;;;;;6284411;22;20015;-90
2022/05/17 12:01:30;;;;;;;2.97;2.00;;;30.20;49.90;;;;;;6256711;22;20038;-88
2022/05/17 12:04:20;;;;;;;7.05;2.33;;;30.50;47.00;;;;;;6258768;22;20031;-88
2022/05/17 12:07:57;;;;;;;;;;;;;;;;;;;;;
2022/05/17 12:15:03;;;;;;;5.22;2.20;;;31.10;44.40;;;;;;6290544;22;20035;-91
2022/05/17 12:27:00;;;;;;;3.92;1.60;;;32.30;44.50;;;;;;6297285;22;20034;-86
2022/05/17 12:34:49;;;;;;;3.60;1.70;;;33.20;38.50;;;;;;6110581;23;20022;-90
2022/05/17 12:38:00;;;;;;;4.10;1.52;;;32.60;37.90;;;;;;6091227;23;20031;-90
2022/05/17 12:46:03;;;;;;;5.38;2.00;;;30.30;46.30;;;;;;6109254;23;20105;-89
2022/05/17 12:49:28;;;;;;;2.78;1.65;;;31.00;43.60;;;;;;6106929;23;20121;-89
2022/05/17 12:52:46;;;;;;;;;;;;;;;;;;;;;
2022/05/17 12:56:06;;;;;;;;;;;;;;;;;;;;;
2022/05/17 13:00:10;;;;;;;;;;;;;;;;;;;;;
2022/05/17 13:03:20;;;;;;;5.65;1.90;;;28.40;51.20;;;;;;6145314;23;20229;-87
2022/05/17 13:06:34;;;;;;;;;;;;;;;;;;;;;
2022/05/17 13:09:37;;;;;;;4.80;2.30;;;27.70;49.40;;;;;;6250486;22;20423;-89
2022/05/17 13:12:42;;;;;;;5.90;2.45;;;26.90;51.30;;;;;;6277594;22;20103;-88
2022/05/17 13:16:22;;;;;;;5.72;2.50;;;26.10;51.30;;;;;;6257401;22;20402;-87
2022/05/17 13:20:01;;;;;;;4.25;1.98;;;25.90;54.80;;;;;;6258283;22;20028;-89
2022/05/17 13:23:31;;;;;;;5.13;1.90;;;27.90;52.20;;;;;;6255000;22;20071;-89
2022/05/17 13:26:29;;;;;;;5.05;1.80;;;29.60;50.60;;;;;;6255328;22;20019;-89
2022/05/17 13:29:30;;;;;;;5.47;2.15;;;30.20;45.60;;;;;;6279696;22;20035;-89
2022/05/17 13:32:25;;;;;;;2.08;1.55;;;31.10;45.70;;;;;;6280680;22;20060;-87
2022/05/17 13:35:20;;;;;;;6.97;1.83;;;31.50;44.10;;;;;;6279637;22;20086;-89
2022/05/17 13:38:17;;;;;;;4.10;2.15;;;31.40;43.60;;;;;;6280239;22;20031;-89
2022/05/17 13:41:40;;;;;;;4.60;1.60;;;31.30;43.00;;;;;;6258420;22;20099;-90
2022/05/17 13:44:37;;;;;;;2.78;1.73;;;31.90;41.80;;;;;;6258007;22;20116;-90
2022/05/17 13:47:31;;;;;;;4.13;1.60;;;32.60;38.80;;;;;;6281078;22;20024;-91
2022/05/17 13:50:23;;;;;;;3.33;2.00;;;32.70;38.10;;;;;;6278924;22;20035;-90
2022/05/17 13:53:11;;;;;;;5.03;1.80;;;32.60;39.90;;;;;;6277331;22;20055;-90
2022/05/17 13:56:00;;;;;;;4.90;1.70;;;32.20;39.60;;;;;;6279141;22;20043;-89
2022/05/17 13:58:55;;;;;;;3.03;1.23;;;31.80;42.20;;;;;;6278854;22;20031;-89
2022/05/17 14:01:53;;;;;;;5.32;1.70;;;31.80;39.90;;;;;;6280059;22;20019;-90
2022/05/17 14:04:46;;;;;;;4.10;1.50;;;31.60;39.10;;;;;;6256506;22;20300;-88
2022/05/17 14:07:36;;;;;;;3.95;1.25;;;31.90;38.30;;;;;;6279280;22;20419;-88
2022/05/17 14:13:42;;;;;;;3.05;1.17;;;32.20;38.60;;;;;;6279100;22;20047;-90
2022/05/17 14:16:33;;;;;;;3.28;1.35;;;32.30;38.60;;;;;;6280299;22;20049;-89
2022/05/17 14:19:23;;;;;;;2.97;1.55;;;31.60;37.70;;;;;;6279221;22;20023;-90
2022/05/17 14:22:12;;;;;;;4.72;1.55;;;31.50;38.70;;;;;;6279230;22;20027;-85
2022/05/17 14:25:20;;;;;;;4.63;1.50;;;30.90;42.00;;;;;;6278290;22;20055;-87
2022/05/17 14:28:08;;;;;;;3.45;1.60;;;30.30;40.50;;;;;;6279337;22;20381;-86
2022/05/17 14:30:59;;;;;;;3.05;1.85;;;30.70;40.00;;;;;;6258570;22;20019;-87
2022/05/17 14:33:49;;;;;;;3.00;1.45;;;30.90;40.60;;;;;;6256791;22;20047;-86
2022/05/17 14:36:39;;;;;;;2.20;1.20;;;30.90;39.00;;;;;;6277625;22;20049;-88
2022/05/17 14:39:28;;;;;;;2.97;1.15;;;31.30;38.80;;;;;;6281299;22;20023;-87
2022/05/17 14:42:18;;;;;;;3.22;1.60;;;31.00;38.90;;;;;;6281601;22;20020;-89
2022/05/17 14:45:06;;;;;;;2.83;1.52;;;31.10;37.40;;;;;;6283107;22;20118;-89
2022/05/17 14:48:00;;;;;;;3.88;1.40;;;31.80;36.90;;;;;;6280810;22;20028;-90
2022/05/17 14:50:51;;;;;;;2.00;1.08;;;31.30;37.80;;;;;;6279948;22;20027;-90
2022/05/17 14:53:40;;;;;;;2.30;1.60;;;30.70;41.10;;;;;;6280609;22;20045;-89
2022/05/17 14:56:48;;;;;;;2.00;1.58;;;30.60;41.70;;;;;;6262683;22;20073;-88
2022/05/17 14:59:35;;;;;;;4.28;1.60;;;30.80;37.70;;;;;;6277657;22;20054;-88
2022/05/17 15:02:23;;;;;;;3.70;1.42;;;30.30;38.50;;;;;;6283321;22;20027;-89
2022/05/17 15:05:10;;;;;;;1.88;1.60;;;30.30;42.70;;;;;;6258126;22;20050;-89
2022/05/17 15:07:59;;;;;;;1.92;1.52;;;29.90;41.40;;;;;;6278977;22;20097;-89
2022/05/17 15:10:47;;;;;;;7.05;1.80;;;29.40;42.90;;;;;;6282539;22;20042;-90
2022/05/17 15:13:43;;;;;;;3.25;1.77;;;29.10;43.10;;;;;;6264595;22;20023;-90
2022/05/17 15:16:30;;;;;;;6.03;1.73;;;28.60;43.00;;;;;;6294051;22;20039;-87
2022/05/17 15:19:22;;;;;;;3.47;1.58;;;27.60;44.30;;;;;;6300290;22;20031;-83
2022/05/17 15:22:14;;;;;;;4.68;1.80;;;26.80;46.70;;;;;;6292182;22;20057;-87
2022/05/17 15:25:02;;;;;;;4.20;1.90;;;26.20;48.30;;;;;;6283045;22;20023;-88
2022/05/17 15:27:53;;;;;;;4.90;1.60;;;25.80;48.90;;;;;;6282270;22;20027;-90
2022/05/17 15:30:41;;;;;;;2.15;1.50;;;25.60;48.80;;;;;;6285149;22;20338;-89
2022/05/17 15:33:30;;;;;;;4.00;1.60;;;25.60;48.80;;;;;;6282559;22;20027;-87
2022/05/17 15:36:23;;;;;;;4.68;1.67;;;25.70;49.50;;;;;;6253964;22;20027;-88
2022/05/17 15:39:10;;;;;;;4.60;1.63;;;26.10;49.50;;;;;;6279965;22;20031;-88
2022/05/17 15:42:02;;;;;;;2.08;1.13;;;26.30;49.40;;;;;;6280311;22;20038;-90
2022/05/17 15:44:50;;;;;;;2.90;1.27;;;26.80;48.00;;;;;;6280491;22;20030;-90
2022/05/17 15:53:58;;;;;;;3.03;1.38;;;26.10;46.20;;;;;;6279385;22;20030;-88
2022/05/17 15:56:48;;;;;;;1.70;1.42;;;25.70;48.50;;;;;;6282572;22;20069;-88
2022/05/17 15:59:38;;;;;;;3.22;1.67;;;25.60;49.20;;;;;;6282837;22;20027;-89
2022/05/17 16:02:30;;;;;;;3.90;1.38;;;25.60;50.20;;;;;;6282451;22;20027;-87
2022/05/17 16:05:22;;;;;;;5.25;1.48;;;25.60;47.80;;;;;;6258138;22;20042;-87
2022/05/17 16:08:13;;;;;;;1.10;1.00;;;25.30;48.70;;;;;;6280443;22;20043;-85
2022/05/17 16:14:09;;;;;;;3.78;1.10;;;25.00;48.70;;;;;;6284755;22;20042;-89
2022/05/17 16:16:57;;;;;;;2.92;1.17;;;25.20;49.90;;;;;;6290845;22;20030;-88
2022/05/17 16:19:46;;;;;;;1.08;0.85;;;25.20;47.30;;;;;;6286736;22;20075;-89
2022/05/17 16:22:37;;;;;;;3.15;1.10;;;25.20;47.80;;;;;;6289933;22;20056;-87
2022/05/17 16:25:25;;;;;;;5.00;1.27;;;25.10;48.80;;;;;;6288333;22;20028;-88
2022/05/17 16:28:18;;;;;;;2.75;1.17;;;25.20;49.60;;;;;;6295245;22;20027;-82
2022/05/17 16:31:11;;;;;;;2.88;1.20;;;25.10;50.30;;;;;;6287636;22;20023;-85
2022/05/17 16:34:01;;;;;;;3.38;1.30;;;24.90;51.20;;;;;;6263157;22;20020;-87
2022/05/17 16:36:48;;;;;;;2.03;1.20;;;24.70;49.40;;;;;;6294356;22;20019;-90
2022/05/17 16:39:37;;;;;;;2.05;1.52;;;24.60;51.60;;;;;;6270590;22;20089;-91
2022/05/17 16:42:29;;;;;;;3.28;1.20;;;24.70;50.20;;;;;;6287666;22;20344;-84
2022/05/17 16:45:20;;;;;;;4.57;1.65;;;24.50;50.30;;;;;;6260268;22;20043;-88
2022/05/17 16:48:10;;;;;;;3.45;1.58;;;24.30;50.10;;;;;;6258532;22;20023;-89
2022/05/17 16:50:57;;;;;;;6.07;1.92;;;24.10;51.70;;;;;;6279151;22;20031;-87
2022/05/17 16:54:07;;;;;;;3.80;1.20;;;24.00;50.50;;;;;;6281102;22;20020;-89
2022/05/17 16:57:00;;;;;;;2.50;1.42;;;23.80;51.40;;;;;;6278868;22;20020;-87
2022/05/17 16:59:47;;;;;;;2.95;1.40;;;23.70;53.10;;;;;;6279152;22;20015;-89
2022/05/17 17:02:38;;;;;;;4.32;1.83;;;23.60;51.30;;;;;;6280287;22;20316;-88
2022/05/17 17:05:29;;;;;;;6.57;1.73;;;23.60;53.20;;;;;;6258821;22;20027;-89
2022/05/17 17:08:19;;;;;;;5.43;1.35;;;23.40;51.80;;;;;;6249763;22;20423;-84
2022/05/17 17:11:07;;;;;;;5.90;1.45;;;23.40;54.80;;;;;;6275005;22;20023;-85
2022/05/17 17:13:54;;;;;;;5.38;1.30;;;23.30;53.30;;;;;;6276943;22;20023;-88
2022/05/17 17:16:41;;;;;;;4.57;1.45;;;23.30;53.90;;;;;;6254829;22;20028;-86
2022/05/17 17:19:31;;;;;;;2.35;1.30;;;23.20;54.40;;;;;;6275962;22;20081;-86
2022/05/17 17:22:21;;;;;;;1.88;0.95;;;23.10;55.00;;;;;;6278992;22;20087;-86
2022/05/17 17:25:09;;;;;;;5.32;1.50;;;23.00;56.50;;;;;;6274743;22;20028;-88
2022/05/17 17:28:01;;;;;;;2.50;1.13;;;22.90;55.50;;;;;;6252805;22;20028;-87
2022/05/17 17:30:49;;;;;;;1.85;1.20;;;22.60;57.00;;;;;;6255713;22;20032;-87
2022/05/17 17:39:51;;;;;;;3.78;1.25;;;22.20;58.70;;;;;;6278294;22;20027;-90
2022/05/17 17:42:39;;;;;;;3.42;1.52;;;22.10;59.30;;;;;;6257528;22;20299;-90
2022/05/17 17:45:28;;;;;;;2.92;1.27;;;21.90;60.00;;;;;;6274508;22;20061;-90
2022/05/17 17:48:19;;;;;;;3.55;1.40;;;21.80;62.50;;;;;;6253215;22;20023;-90
2022/05/17 17:51:07;;;;;;;2.85;1.30;;;21.70;62.10;;;;;;6274609;22;20331;-87
2022/05/17 17:53:56;;;;;;;4.45;1.70;;;21.60;62.50;;;;;;6274789;22;20057;-90
2022/05/17 17:56:44;;;;;;;6.50;1.70;;;21.50;63.90;;;;;;6275864;22;20020;-91
2022/05/17 17:59:36;;;;;;;4.50;1.60;;;21.50;64.20;;;;;;6257476;22;20020;-90
2022/05/17 18:02:23;;;;;;;2.75;1.50;;;21.40;65.40;;;;;;6256526;22;20027;-92
2022/05/17 18:05:19;;;;;;;3.65;1.50;;;21.20;65.00;;;;;;6277049;22;20051;-89
2022/05/17 18:08:10;;;;;;;3.90;1.48;;;21.20;65.70;;;;;;6277811;22;20505;-91
2022/05/17 18:11:00;;;;;;;2.63;1.63;;;21.10;67.30;;;;;;6254948;22;20039;-91
2022/05/17 18:13:50;;;;;;;3.20;1.40;;;21.00;68.00;;;;;;6254492;22;20035;-91
2022/05/17 18:16:44;;;;;;;2.88;1.40;;;20.90;68.30;;;;;;6275669;22;20024;-90
2022/05/17 18:19:34;;;;;;;5.00;1.80;;;20.90;68.80;;;;;;6276456;22;20023;-91
2022/05/17 18:22:22;;;;;;;5.20;2.22;;;20.80;69.80;;;;;;6277144;22;20115;-90
2022/05/17 18:25:11;;;;;;;4.00;1.65;;;20.80;69.20;;;;;;6277940;22;20027;-92
2022/05/17 18:28:04;;;;;;;4.88;1.50;;;20.70;70.50;;;;;;6275471;22;20023;-90
2022/05/17 18:30:52;;;;;;;;;;;20.60;71.10;;;;;;6277002;22;20024;-91
2022/05/17 18:33:41;;;;;;;2.65;1.80;;;20.50;71.50;;;;;;6279162;22;19923;-90
2022/05/17 18:36:36;;;;;;;6.88;1.90;;;20.40;72.30;;;;;;6277630;22;20019;-90
2022/05/17 18:39:25;;;;;;;4.93;1.77;;;20.30;73.10;;;;;;6278040;22;20020;-90
2022/05/17 18:42:13;;;;;;;2.58;1.80;;;20.20;73.20;;;;;;6278830;22;20035;-90
2022/05/17 18:45:02;;;;;;;2.17;1.55;;;20.10;74.70;;;;;;6278033;22;20328;-89
2022/05/17 18:48:00;;;;;;;2.88;1.42;;;20.00;74.80;;;;;;6276962;22;20027;-91
2022/05/17 18:50:48;;;;;;;2.83;1.65;;;19.90;77.00;;;;;;6276950;22;20106;-90
2022/05/17 18:53:36;;;;;;;2.92;2.00;;;19.60;77.40;;;;;;6278023;22;20111;-90
2022/05/17 18:56:26;;;;;;;2.75;1.60;;;19.60;77.30;;;;;;6277308;22;20023;-90
2022/05/17 18:59:20;;;;;;;3.38;1.63;;;19.50;77.30;;;;;;6279658;22;20023;-91
2022/05/17 19:02:12;;;;;;;3.65;1.80;;;19.40;79.00;;;;;;6255853;22;20319;-91
2022/05/17 19:05:00;;;;;;;2.65;1.80;;;19.10;80.70;;;;;;6280416;22;20103;-89
2022/05/17 19:14:07;;;;;;;9.52;1.92;;;18.60;86.00;;;;;;6297116;22;20028;-90
2022/05/17 19:17:00;;;;;;;3.95;2.22;;;18.50;88.70;;;;;;6274442;22;20082;-89
2022/05/17 19:19:55;;;;;;;3.45;2.20;;;18.60;88.00;;;;;;6297725;22;20020;-90
2022/05/17 19:22:43;;;;;;;4.68;2.30;;;18.60;90.30;;;;;;6271308;22;20037;-91
2022/05/17 19:25:32;;;;;;;3.95;2.00;;;18.50;90.70;;;;;;6288950;22;20028;-90
2022/05/17 19:28:19;;;;;;;6.85;2.17;;;18.50;90.70;;;;;;6292961;22;20027;-89
2022/05/17 19:31:20;;;;;;;5.68;1.83;;;18.50;90.80;;;;;;6291868;22;20139;-90
2022/05/17 19:34:14;;;;;;;6.10;1.77;;;18.50;90.60;;;;;;6286797;22;20020;-90
2022/05/17 19:40:24;;;;;;;4.65;2.17;;;18.50;90.70;;;;;;6276575;22;20034;-90
2022/05/17 19:43:12;;;;;;;5.20;2.30;;;18.40;91.00;;;;;;6274129;22;20027;-91
2022/05/17 19:46:18;;;;;;;4.28;2.10;;;18.40;91.20;;;;;;6274511;22;20058;-91